地図

経路データ

SID SEASON NUMBER BASIN SUBBASIN NAME ISO_TIME NATURE LAT LON WMO_WIND WMO_PRES WMO_AGENCY TRACK_TYPE DIST2LAND LANDFALL IFLAG USA_AGENCY USA_ATCF_ID USA_LAT USA_LON USA_RECORD USA_STATUS USA_WIND USA_PRES USA_SSHS USA_R34_NE USA_R34_SE USA_R34_SW USA_R34_NW USA_R50_NE USA_R50_SE USA_R50_SW USA_R50_NW USA_R64_NE USA_R64_SE USA_R64_SW USA_R64_NW USA_POCI USA_ROCI USA_RMW USA_EYE TOKYO_LAT TOKYO_LON TOKYO_GRADE TOKYO_WIND TOKYO_PRES TOKYO_R50_DIR TOKYO_R50_LONG TOKYO_R50_SHORT TOKYO_R30_DIR TOKYO_R30_LONG TOKYO_R30_SHORT TOKYO_LAND CMA_LAT CMA_LON CMA_CAT CMA_WIND CMA_PRES HKO_LAT HKO_LON HKO_CAT HKO_WIND HKO_PRES NEWDELHI_LAT NEWDELHI_LON NEWDELHI_GRADE NEWDELHI_WIND NEWDELHI_PRES NEWDELHI_CI NEWDELHI_DP NEWDELHI_POCI REUNION_LAT REUNION_LON REUNION_TYPE REUNION_WIND REUNION_PRES REUNION_TNUM REUNION_CI REUNION_RMW REUNION_R34_NE REUNION_R34_SE REUNION_R34_SW REUNION_R34_NW REUNION_R50_NE REUNION_R50_SE REUNION_R50_SW REUNION_R50_NW REUNION_R64_NE REUNION_R64_SE REUNION_R64_SW REUNION_R64_NW BOM_LAT BOM_LON BOM_TYPE BOM_WIND BOM_PRES BOM_TNUM BOM_CI BOM_RMW BOM_R34_NE BOM_R34_SE BOM_R34_SW BOM_R34_NW BOM_R50_NE BOM_R50_SE BOM_R50_SW BOM_R50_NW BOM_R64_NE BOM_R64_SE BOM_R64_SW BOM_R64_NW BOM_ROCI BOM_POCI BOM_EYE BOM_POS_METHOD BOM_PRES_METHOD NADI_LAT NADI_LON NADI_CAT NADI_WIND NADI_PRES WELLINGTON_LAT WELLINGTON_LON WELLINGTON_WIND WELLINGTON_PRES DS824_LAT DS824_LON DS824_STAGE DS824_WIND DS824_PRES TD9636_LAT TD9636_LON TD9636_STAGE TD9636_WIND TD9636_PRES TD9635_LAT TD9635_LON TD9635_WIND TD9635_PRES TD9635_ROCI NEUMANN_LAT NEUMANN_LON NEUMANN_CLASS NEUMANN_WIND NEUMANN_PRES MLC_LAT MLC_LON MLC_CLASS MLC_WIND MLC_PRES USA_GUST BOM_GUST BOM_GUST_PER REUNION_GUST REUNION_GUST_PER USA_SEAHGT USA_SEARAD_NE USA_SEARAD_SE USA_SEARAD_SW USA_SEARAD_NW STORM_SPEED STORM_DIR
1900279N13126 1900 34 WP MM NOT_NAMED 1900-10-05 16:00:00 NR 12.5000 126.000 main 63 0 __________O___ -1 12.5000 126.000 7 20 264
1900279N13126 1900 34 WP MM NOT_NAMED 1900-10-05 18:00:00 NR 12.4268 125.332 main 0 0 __________P___ -1 12.4268 125.332 7 19 264
1900279N13126 1900 34 WP MM NOT_NAMED 1900-10-05 21:00:00 NR 12.3239 124.349 main 10 0 __________P___ -1 12.3239 124.349 7 19 264
1900279N13126 1900 34 WP MM NOT_NAMED 1900-10-06 00:00:00 NR 12.2437 123.416 main 0 0 __________P___ -1 12.2437 123.416 7 18 266
1900279N13126 1900 34 WP MM NOT_NAMED 1900-10-06 03:00:00 NR 12.2023 122.562 main 60 46 __________P___ -1 12.2023 122.562 7 16 268
1900279N13126 1900 34 WP MM NOT_NAMED 1900-10-06 04:00:00 NR 12.2000 122.300 main 46 44 __________O___ -1 12.2000 122.300 3 15 271
1900279N13126 1900 34 WP MM NOT_NAMED 1900-10-06 06:00:00 NR 12.2151 121.813 main 44 0 __________P___ -1 12.2151 121.813 3 13 274
1900279N13126 1900 34 WP MM NOT_NAMED 1900-10-06 09:00:00 NR 12.2825 121.157 main 0 0 __________P___ -1 12.2825 121.157 3 12 278
1900279N13126 1900 34 WP MM NOT_NAMED 1900-10-06 12:00:00 NR 12.3955 120.561 main 39 46 __________P___ -1 12.3955 120.561 3 12 283
1900279N13126 1900 34 WP MM NOT_NAMED 1900-10-06 15:00:00 NR 12.5442 119.990 main 89 86 __________P___ -1 12.5442 119.990 3 12 285
1900279N13126 1900 34 WP MM NOT_NAMED 1900-10-06 16:00:00 NR 12.6000 119.800 main 101 101 __________O___ -1 12.6000 119.800 4 12 286
1900279N13126 1900 34 WP MM NOT_NAMED 1900-10-06 18:00:00 NR 12.7102 119.389 main 125 125 __________P___ -1 12.7102 119.389 4 13 287
1900279N13126 1900 34 WP MM NOT_NAMED 1900-10-06 21:00:00 NR 12.9010 118.779 main 171 182 __________P___ -1 12.9010 118.779 4 12 289
1900279N13126 1900 34 WP MM NOT_NAMED 1900-10-07 00:00:00 NR 13.1112 118.179 main 229 240 __________P___ -1 13.1112 118.179 4 12 290
1900279N13126 1900 34 WP MM NOT_NAMED 1900-10-07 03:00:00 NR 13.3283 117.592 main 292 292 __________P___ -1 13.3283 117.592 4 12 291
1900279N13126 1900 34 WP MM NOT_NAMED 1900-10-07 04:00:00 NR 13.4000 117.400 main 313 313 __________O___ -1 13.4000 117.400 4 12 292
1900279N13126 1900 34 WP MM NOT_NAMED 1900-10-07 06:00:00 NR 13.5433 117.032 main 357 357 __________P___ -1 13.5433 117.032 4 11 292
1900279N13126 1900 34 WP MM NOT_NAMED 1900-10-07 09:00:00 NR 13.7587 116.494 main 403 403 __________P___ -1 13.7587 116.494 4 11 292
1900279N13126 1900 34 WP MM NOT_NAMED 1900-10-07 12:00:00 NR 13.9639 115.954 main 447 458 __________P___ -1 13.9639 115.954 4 11 290
1900279N13126 1900 34 WP MM NOT_NAMED 1900-10-07 15:00:00 NR 14.1464 115.394 main 505 502 __________P___ -1 14.1464 115.394 4 12 288
1900279N13126 1900 34 WP MM NOT_NAMED 1900-10-07 16:00:00 NR 14.2000 115.200 main 523 523 __________O___ -1 14.2000 115.200 4 12 284
1900279N13126 1900 34 WP MM NOT_NAMED 1900-10-07 18:00:00 NR 14.2975 114.776 main 559 520 __________P___ -1 14.2975 114.776 4 13 282
1900279N13126 1900 34 WP MM NOT_NAMED 1900-10-07 21:00:00 NR 14.4187 114.115 main 520 447 __________P___ -1 14.4187 114.115 4 13 279
1900279N13126 1900 34 WP MM NOT_NAMED 1900-10-08 00:00:00 NR 14.5124 113.449 main 447 385 __________P___ -1 14.5124 113.449 4 13 277
1900279N13126 1900 34 WP MM NOT_NAMED 1900-10-08 03:00:00 NR 14.5817 112.805 main 385 364 __________P___ -1 14.5817 112.805 4 12 276
1900279N13126 1900 34 WP MM NOT_NAMED 1900-10-08 04:00:00 NR 14.6000 112.600 main 364 322 __________O___ -1 14.6000 112.600 4 11 275
1900279N13126 1900 34 WP MM NOT_NAMED 1900-10-08 06:00:00 NR 14.6306 112.221 main 322 273 __________P___ -1 14.6306 112.221 4 11 274
1900279N13126 1900 34 WP MM NOT_NAMED 1900-10-08 09:00:00 NR 14.6579 111.685 main 273 223 __________P___ -1 14.6579 111.685 4 10 272
1900279N13126 1900 34 WP MM NOT_NAMED 1900-10-08 12:00:00 NR 14.6742 111.172 main 223 172 __________P___ -1 14.6742 111.172 4 10 272
1900279N13126 1900 34 WP MM NOT_NAMED 1900-10-08 15:00:00 NR 14.6917 110.669 main 172 150 __________P___ -1 14.6917 110.669 4 10 272
1900279N13126 1900 34 WP MM NOT_NAMED 1900-10-08 16:00:00 NR 14.7000 110.500 main 150 118 __________O___ -1 14.7000 110.500 4 10 274
1900279N13126 1900 34 WP MM NOT_NAMED 1900-10-08 18:00:00 NR 14.7220 110.159 main 118 54 __________P___ -1 14.7220 110.159 4 10 275
1900279N13126 1900 34 WP MM NOT_NAMED 1900-10-08 21:00:00 NR 14.7665 109.638 main 54 10 __________P___ -1 14.7665 109.638 4 10 276
1900279N13126 1900 34 WP MM NOT_NAMED 1900-10-09 00:00:00 NR 14.8207 109.110 main 10 0 __________P___ -1 14.8207 109.110 4 10 276
1900279N13126 1900 34 WP MM NOT_NAMED 1900-10-09 03:00:00 NR 14.8800 108.578 main 0 0 __________P___ -1 14.8800 108.578 4 10 277
1900279N13126 1900 34 WP MM NOT_NAMED 1900-10-09 04:00:00 NR 14.9000 108.400 main 0 __________O___ -1 14.9000 108.400 7 10 277

デジタル台風データ・検索

IBTrACS Databaseについて

本データベースは、米国NOAAが公開する1842年以降の世界の熱帯低気圧のベストトラックデータアーカイブInternational Best Track Archive for Climate Stewardship (IBTrACS)を、ウェブで閲覧しやすい形式に変換したものです。

最終更新日:2021-12-08